Time;durP1;ratioP1;P1;durP2;ratioP2;P2;SDS_P1;SDS_P2;PMS_P1;PMS_P2;Temp;Humidity;BMP_temperature;BMP_pressure;BME280_temperature;BME280_humidity;BME280_pressure;Samples;Min_cycle;Max_cycle;Signal;HPM_P1;HPM_P2
2022/01/24 00:00:05;;;;;;;;;;;;;;;;;;351329;28;892;-75
2022/01/24 00:00:16;;;;;;;;;;;;;;;;;;351017;28;1297;-75
2022/01/24 00:00:27;;;;;;;;;;;;;;;;;;351349;28;860;-76
2022/01/24 00:00:37;;;;;;;;;;;;;;;;;;351399;28;972;-75
2022/01/24 00:00:47;;;;;;;;;;;;;;;;;;351360;28;1019;-75
2022/01/24 00:01:00;;;;;;;;;;;;;;;;;;352283;28;1765;-75
2022/01/24 00:01:11;;;;;;;;;;;;;;;;;;352681;28;955;-76
2022/01/24 00:01:21;;;;;;;;;;;;;;;;;;352826;28;896;-75
2022/01/24 00:01:31;;;;;;;;;;;;;;;;;;352809;28;806;-76
2022/01/24 00:01:42;;;;;;;;;;;;;;;;;;352825;28;920;-75
2022/01/24 00:01:54;;;;;;;;;;;;;;;;;;351894;28;1577;-75
2022/01/24 00:02:04;;;;;;;;;;;;;;;;;;351583;28;1785;-75
2022/01/24 00:02:14;;;;;;;;;;;;;;;;;;351392;28;909;-75
2022/01/24 00:02:27;;;;;;;;;;;;;;;;;;351396;28;964;-75
2022/01/24 00:02:38;;;;;;;;;;;;;;;;;;351437;28;888;-75
2022/01/24 00:02:48;;;;;;;;;;;;;;;;;;351371;28;984;-76
2022/01/24 00:02:59;;;;;;;;;;;;;;;;;;351354;28;798;-76
2022/01/24 00:03:09;;;;;;;;;;;;;;;;;;351361;28;980;-76
2022/01/24 00:03:19;;;;;;;;;;;;;;;;;;351321;28;1048;-76
2022/01/24 00:03:29;;;;;;;;;;;;;;;;;;351396;28;924;-75
2022/01/24 00:03:40;;;;;;;;;;;;;;;;;;351431;28;945;-76
2022/01/24 00:03:56;;;;;;;;;;;;;;;;;;351409;28;936;-75
2022/01/24 00:04:08;;;;;;;;;;;;;;;;;;351380;28;881;-75
2022/01/24 00:04:18;;;;;;;;;;;;;;;;;;351403;28;917;-75
2022/01/24 00:04:28;;;;;;;;;;;;;;;;;;351374;28;802;-76
2022/01/24 00:04:39;;;;;;;;;;;;;;;;;;351307;28;1043;-76
2022/01/24 00:04:50;;;;;;;;;;;;;;;;;;351384;28;1054;-75
2022/01/24 00:05:00;;;;;;;;;;;;;;;;;;351442;28;940;-76
2022/01/24 00:05:11;;;;;;;;;;;;;;;;;;351304;28;905;-75
2022/01/24 00:05:22;;;;;;;;;;;;;;;;;;351285;28;985;-76
2022/01/24 00:05:33;;;;;;;;;;;;;;;;;;351418;28;872;-75
2022/01/24 00:05:44;;;;;;;;;;;;;;;;;;351401;28;940;-75
2022/01/24 00:05:54;;;;;;;;;;;;;;;;;;351317;28;924;-76
2022/01/24 00:06:08;;;;;;;;;;;;;;;;;;351410;28;940;-75
2022/01/24 00:06:18;;;;;;;;;;;;;;;;;;351387;28;944;-75
2022/01/24 00:06:31;;;;;;;;;;;;;;;;;;351317;28;1967;-76
2022/01/24 00:06:41;;;;;;;;;;;;;;;;;;351394;28;960;-76
2022/01/24 00:06:52;;;;;;;;;;;;;;;;;;351318;28;1653;-75
2022/01/24 00:07:03;;;;;;;;;;;;;;;;;;351275;28;1875;-75
2022/01/24 00:07:15;;;;;;;;;;;;;;;;;;351349;28;975;-75
2022/01/24 00:07:25;;;;;;;;;;;;;;;;;;350953;28;1436;-75
2022/01/24 00:07:35;;;;;;;;;;;;;;;;;;352063;28;1574;-75
2022/01/24 00:07:46;;;;;;;;;;;;;;;;;;352109;28;1854;-75
2022/01/24 00:07:56;;;;;;;;;;;;;;;;;;352561;28;1132;-75
2022/01/24 00:08:06;;;;;;;;;;;;;;;;;;352792;28;901;-76
2022/01/24 00:08:16;;;;;;;;;;;;;;;;;;352681;28;1013;-76
2022/01/24 00:08:28;;;;;;;;;;;;;;;;;;352793;28;869;-75
2022/01/24 00:08:39;;;;;;;;;;;;;;;;;;352754;28;1017;-75
2022/01/24 00:08:49;;;;;;;;;;;;;;;;;;352692;28;909;-75
2022/01/24 00:08:59;;;;;;;;;;;;;;;;;;352825;28;932;-76
2022/01/24 00:09:11;;;;;;;;;;;;;;;;;;352784;28;1056;-76
2022/01/24 00:09:21;;;;;;;;;;;;;;;;;;352689;28;932;-76
2022/01/24 00:09:32;;;;;;;;;;;;;;;;;;352730;28;833;-75
2022/01/24 00:09:43;;;;;;;;;;;;;;;;;;351199;28;1652;-75
2022/01/24 00:09:56;;;;;;;;;;;;;;;;;;351688;28;1222;-75
2022/01/24 00:10:12;;;;;;;;;;;;;;;;;;352175;28;1634;-75
2022/01/24 00:10:25;;;;;;;;;;;;;;;;;;352818;28;884;-75
2022/01/24 00:10:38;;;;;;;;;;;;;;;;;;352787;28;936;-76
2022/01/24 00:10:50;;;;;;;;;;;;;;;;;;352711;28;781;-75
2022/01/24 00:11:06;;;;;;;;;;;;;;;;;;352805;28;940;-75
2022/01/24 00:11:21;;;;;;;;;;;;;;;;;;352702;28;980;-75
2022/01/24 00:11:46;;;;;;;;;;;;;;;;;;352791;28;944;-76
2022/01/24 00:12:17;;;;;;;;;;;;;;;;;;351335;28;1032;-76
2022/01/24 00:14:59;;;;;;;;;;;;;;;;;;347570;28;1437;-75
2022/01/24 00:15:20;;;;;;;;;;;;;;;;;;347100;28;1040;-75
2022/01/24 00:15:52;;;;;;;;;;;;;;;;;;346998;28;961;-75
2022/01/24 00:16:23;;;;;;;;;;;;;;;;;;351372;28;971;-75
2022/01/24 00:17:00;;;;;;;;;;;;;;;;;;351387;28;848;-75
2022/01/24 00:17:39;;;;;;;;;;;;;;;;;;351382;28;968;-75
2022/01/24 00:18:05;;;;;;;;;;;;;;;;;;351339;28;969;-75
2022/01/24 00:18:28;;;;;;;;;;;;;;;;;;351397;28;909;-76
2022/01/24 00:26:47;;;;;;;;;;;;;;;;;;352793;28;1034;-76
2022/01/24 00:26:57;;;;;;;;;;;;;;;;;;352783;28;862;-75
2022/01/24 00:27:07;;;;;;;;;;;;;;;;;;352561;28;1136;-76
2022/01/24 00:27:17;;;;;;;;;;;;;;;;;;352718;28;968;-75
2022/01/24 00:27:28;;;;;;;;;;;;;;;;;;352775;28;964;-76
2022/01/24 00:27:38;;;;;;;;;;;;;;;;;;352290;28;1759;-75
2022/01/24 00:27:48;;;;;;;;;;;;;;;;;;351322;28;1817;-75
2022/01/24 00:27:59;;;;;;;;;;;;;;;;;;351154;28;1198;-76
2022/01/24 00:28:09;;;;;;;;;;;;;;;;;;351055;28;1167;-76
2022/01/24 00:28:20;;;;;;;;;;;;;;;;;;351282;28;916;-75
2022/01/24 00:28:31;;;;;;;;;;;;;;;;;;351239;28;821;-75
2022/01/24 00:28:41;;;;;;;;;;;;;;;;;;351117;28;1095;-75
2022/01/24 00:28:51;;;;;;;;;;;;;;;;;;351275;28;858;-75
2022/01/24 00:29:01;;;;;;;;;;;;;;;;;;350045;28;1761;-76
2022/01/24 00:29:12;;;;;;;;;;;;;;;;;;350698;28;1766;-75
2022/01/24 00:29:23;;;;;;;;;;;;;;;;;;351282;28;912;-75
2022/01/24 00:29:33;;;;;;;;;;;;;;;;;;350942;28;1770;-75
2022/01/24 00:29:44;;;;;;;;;;;;;;;;;;349858;28;956;-75
2022/01/24 00:29:54;;;;;;;;;;;;;;;;;;350468;28;991;-75
2022/01/24 00:30:04;;;;;;;;;;;;;;;;;;351297;28;928;-76
2022/01/24 00:30:15;;;;;;;;;;;;;;;;;;351330;28;825;-75
2022/01/24 00:30:25;;;;;;;;;;;;;;;;;;351413;28;825;-75
2022/01/24 00:30:36;;;;;;;;;;;;;;;;;;351374;28;885;-75
2022/01/24 00:30:46;;;;;;;;;;;;;;;;;;351304;28;979;-76
2022/01/24 00:30:56;;;;;;;;;;;;;;;;;;351384;28;877;-76
2022/01/24 00:31:06;;;;;;;;;;;;;;;;;;351440;28;794;-75
2022/01/24 00:31:17;;;;;;;;;;;;;;;;;;351344;28;1002;-75
2022/01/24 00:31:27;;;;;;;;;;;;;;;;;;351340;28;892;-75
2022/01/24 00:31:37;;;;;;;;;;;;;;;;;;351307;28;897;-75
2022/01/24 00:31:47;;;;;;;;;;;;;;;;;;351157;28;1598;-75
2022/01/24 00:31:58;;;;;;;;;;;;;;;;;;351469;28;1849;-75
2022/01/24 00:32:08;;;;;;;;;;;;;;;;;;352755;28;864;-76
2022/01/24 00:32:18;;;;;;;;;;;;;;;;;;352681;28;924;-75
2022/01/24 00:32:28;;;;;;;;;;;;;;;;;;352692;28;995;-75
2022/01/24 00:32:39;;;;;;;;;;;;;;;;;;352607;28;936;-75
2022/01/24 00:32:49;;;;;;;;;;;;;;;;;;352557;28;956;-76
2022/01/24 00:32:59;;;;;;;;;;;;;;;;;;352677;28;999;-75
2022/01/24 00:33:09;;;;;;;;;;;;;;;;;;352805;28;900;-76
2022/01/24 00:33:20;;;;;;;;;;;;;;;;;;352719;28;868;-76
2022/01/24 00:33:30;;;;;;;;;;;;;;;;;;352715;28;995;-75
2022/01/24 00:33:40;;;;;;;;;;;;;;;;;;352718;28;1029;-75
2022/01/24 00:33:51;;;;;;;;;;;;;;;;;;352427;28;1747;-75
2022/01/24 00:34:01;;;;;;;;;;;;;;;;;;352724;28;798;-76
2022/01/24 00:34:11;;;;;;;;;;;;;;;;;;352714;28;1051;-75
2022/01/24 00:34:25;;;;;;;;;;;;;;;;;;352757;28;876;-75
2022/01/24 00:34:35;;;;;;;;;;;;;;;;;;352698;28;975;-75
2022/01/24 00:34:45;;;;;;;;;;;;;;;;;;352766;28;1000;-76
2022/01/24 00:34:56;;;;;;;;;;;;;;;;;;352775;28;932;-76
2022/01/24 00:35:06;;;;;;;;;;;;;;;;;;352758;28;801;-75
2022/01/24 00:35:17;;;;;;;;;;;;;;;;;;352695;28;911;-76
2022/01/24 00:35:27;;;;;;;;;;;;;;;;;;352785;28;822;-75
2022/01/24 00:35:37;;;;;;;;;;;;;;;;;;352712;28;1149;-75
2022/01/24 00:35:50;;;;;;;;;;;;;;;;;;352396;28;1637;-75
2022/01/24 00:36:00;;;;;;;;;;;;;;;;;;352703;28;955;-75
2022/01/24 00:36:10;;;;;;;;;;;;;;;;;;352605;28;1123;-76
2022/01/24 00:36:20;;;;;;;;;;;;;;;;;;352732;28;920;-76
2022/01/24 00:36:31;;;;;;;;;;;;;;;;;;352728;28;1010;-75
2022/01/24 00:36:42;;;;;;;;;;;;;;;;;;352672;28;1038;-76
2022/01/24 00:36:52;;;;;;;;;;;;;;;;;;352738;28;864;-75
2022/01/24 00:37:03;;;;;;;;;;;;;;;;;;352790;28;884;-76
2022/01/24 00:37:13;;;;;;;;;;;;;;;;;;352749;28;1036;-75
2022/01/24 00:37:23;;;;;;;;;;;;;;;;;;352715;28;797;-75
2022/01/24 00:37:34;;;;;;;;;;;;;;;;;;352711;28;884;-75
2022/01/24 00:37:44;;;;;;;;;;;;;;;;;;352697;28;1660;-76
2022/01/24 00:38:00;;;;;;;;;;;;;;;;;;351543;28;1734;-75
2022/01/24 00:38:10;;;;;;;;;;;;;;;;;;351352;28;924;-75
2022/01/24 00:38:21;;;;;;;;;;;;;;;;;;351311;28;972;-76
2022/01/24 00:38:32;;;;;;;;;;;;;;;;;;351192;28;1027;-76
2022/01/24 00:38:42;;;;;;;;;;;;;;;;;;351296;28;818;-75
2022/01/24 00:38:54;;;;;;;;;;;;;;;;;;351147;28;1381;-75
2022/01/24 00:39:05;;;;;;;;;;;;;;;;;;351274;28;923;-75
2022/01/24 00:39:16;;;;;;;;;;;;;;;;;;351224;28;912;-76
2022/01/24 00:39:26;;;;;;;;;;;;;;;;;;351669;28;1542;-76
2022/01/24 00:39:38;;;;;;;;;;;;;;;;;;352651;28;939;-75
2022/01/24 00:39:49;;;;;;;;;;;;;;;;;;352627;28;886;-76
2022/01/24 00:39:59;;;;;;;;;;;;;;;;;;352628;28;964;-75
2022/01/24 00:40:10;;;;;;;;;;;;;;;;;;352600;28;984;-75
2022/01/24 00:40:20;;;;;;;;;;;;;;;;;;352187;28;1628;-75
2022/01/24 00:40:36;;;;;;;;;;;;;;;;;;352218;28;1722;-76
2022/01/24 00:40:48;;;;;;;;;;;;;;;;;;351303;28;762;-76
2022/01/24 00:40:58;;;;;;;;;;;;;;;;;;351330;28;908;-75
2022/01/24 00:41:13;;;;;;;;;;;;;;;;;;351253;28;932;-75
2022/01/24 00:41:23;;;;;;;;;;;;;;;;;;351362;28;1043;-75
2022/01/24 00:41:44;;;;;;;;;;;;;;;;;;351377;28;1084;-76
2022/01/24 00:42:56;;;;;;;;;;;;;;;;;;346735;28;1863;-75
2022/01/24 00:43:00;;;;;;;;;;;;;;;;;;351332;28;1083;-76
2022/01/24 00:43:22;;;;;;;;;;;;;;;;;;349851;28;1132;-75
2022/01/24 00:43:56;;;;;;;;;;;;;;;;;;351342;28;952;-76
2022/01/24 00:44:47;;;;;;;;;;;;;;;;;;351307;28;995;-75
2022/01/24 00:45:25;;;;;;;;;;;;;;;;;;351926;28;1584;-75
2022/01/24 00:45:56;;;;;;;;;;;;;;;;;;352680;28;1261;-75
2022/01/24 00:46:17;;;;;;;;;;;;;;;;;;352759;28;940;-75
2022/01/24 00:46:36;;;;;;;;;;;;;;;;;;352759;28;1003;-76
2022/01/24 00:46:53;;;;;;;;;;;;;;;;;;352584;28;1616;-75
2022/01/24 00:47:11;;;;;;;;;;;;;;;;;;352534;28;1698;-75
2022/01/24 00:47:29;;;;;;;;;;;;;;;;;;352737;28;940;-76
2022/01/24 00:48:03;;;;;;;;;;;;;;;;;;352725;28;1010;-76
2022/01/24 00:48:32;;;;;;;;;;;;;;;;;;352699;28;1002;-76
2022/01/24 00:52:59;;;;;;;;;;;;;;;;;;348399;28;957;-76
2022/01/24 00:54:42;;;;;;;;;;;;;;;;;;351315;28;984;-75
2022/01/24 00:54:44;;;;;;;;;;;;;;;;;;350788;28;1003;-76
2022/01/24 00:54:54;;;;;;;;;;;;;;;;;;351346;28;873;-76
2022/01/24 00:55:05;;;;;;;;;;;;;;;;;;351286;28;944;-76
2022/01/24 00:55:15;;;;;;;;;;;;;;;;;;351509;28;1309;-76
2022/01/24 00:55:26;;;;;;;;;;;;;;;;;;352776;28;912;-75
2022/01/24 00:55:36;;;;;;;;;;;;;;;;;;352733;28;905;-75
2022/01/24 00:55:47;;;;;;;;;;;;;;;;;;352739;28;888;-75
2022/01/24 00:55:58;;;;;;;;;;;;;;;;;;352687;28;912;-76
2022/01/24 00:56:09;;;;;;;;;;;;;;;;;;352193;28;1632;-75
2022/01/24 00:56:20;;;;;;;;;;;;;;;;;;351298;28;959;-76
2022/01/24 00:56:30;;;;;;;;;;;;;;;;;;351295;28;1058;-75
2022/01/24 00:56:40;;;;;;;;;;;;;;;;;;351134;28;1007;-76
2022/01/24 00:56:51;;;;;;;;;;;;;;;;;;351338;28;857;-75
2022/01/24 00:57:01;;;;;;;;;;;;;;;;;;351360;28;999;-76
2022/01/24 00:57:11;;;;;;;;;;;;;;;;;;351225;28;818;-75
2022/01/24 00:57:22;;;;;;;;;;;;;;;;;;351256;28;1074;-75
2022/01/24 00:57:32;;;;;;;;;;;;;;;;;;351370;28;865;-75
2022/01/24 00:57:42;;;;;;;;;;;;;;;;;;351292;28;1003;-75
2022/01/24 00:57:52;;;;;;;;;;;;;;;;;;351331;28;849;-76
2022/01/24 00:58:03;;;;;;;;;;;;;;;;;;351295;28;988;-76
2022/01/24 00:58:13;;;;;;;;;;;;;;;;;;351164;28;1669;-75
2022/01/24 00:58:24;;;;;;;;;;;;;;;;;;352012;28;1864;-76
2022/01/24 00:58:34;;;;;;;;;;;;;;;;;;352663;28;1261;-76
2022/01/24 00:58:44;;;;;;;;;;;;;;;;;;352706;28;989;-76
2022/01/24 00:58:55;;;;;;;;;;;;;;;;;;352621;28;1847;-76
2022/01/24 00:59:05;;;;;;;;;;;;;;;;;;352746;28;924;-75
2022/01/24 00:59:15;;;;;;;;;;;;;;;;;;352513;28;1007;-75
2022/01/24 00:59:25;;;;;;;;;;;;;;;;;;352729;28;1039;-76
2022/01/24 00:59:36;;;;;;;;;;;;;;;;;;352784;28;789;-75
2022/01/24 00:59:46;;;;;;;;;;;;;;;;;;352687;28;897;-76
2022/01/24 00:59:56;;;;;;;;;;;;;;;;;;352762;28;790;-76
2022/01/24 01:00:07;;;;;;;;;;;;;;;;;;352573;28;1534;-75
2022/01/24 01:00:17;;;;;;;;;;;;;;;;;;352690;28;1048;-76
2022/01/24 01:00:28;;;;;;;;;;;;;;;;;;352707;28;908;-76
2022/01/24 01:00:38;;;;;;;;;;;;;;;;;;352740;28;972;-76
2022/01/24 01:00:48;;;;;;;;;;;;;;;;;;352755;28;905;-76
2022/01/24 01:00:59;;;;;;;;;;;;;;;;;;352778;28;841;-76
2022/01/24 01:01:09;;;;;;;;;;;;;;;;;;352172;28;1582;-75
2022/01/24 01:01:20;;;;;;;;;;;;;;;;;;351140;28;1781;-76
2022/01/24 01:01:30;;;;;;;;;;;;;;;;;;349522;28;1677;-76
2022/01/24 01:01:40;;;;;;;;;;;;;;;;;;351260;28;999;-76
2022/01/24 01:01:51;;;;;;;;;;;;;;;;;;350386;28;1715;-75
2022/01/24 01:02:01;;;;;;;;;;;;;;;;;;350436;28;1828;-75
2022/01/24 01:02:12;;;;;;;;;;;;;;;;;;350921;28;1599;-76
2022/01/24 01:02:22;;;;;;;;;;;;;;;;;;351244;28;1004;-76
2022/01/24 01:02:33;;;;;;;;;;;;;;;;;;351248;28;917;-75
2022/01/24 01:02:43;;;;;;;;;;;;;;;;;;351237;28;975;-76
2022/01/24 01:02:53;;;;;;;;;;;;;;;;;;351253;28;1022;-75
2022/01/24 01:03:04;;;;;;;;;;;;;;;;;;351170;28;873;-75
2022/01/24 01:03:14;;;;;;;;;;;;;;;;;;350046;28;1664;-75
2022/01/24 01:03:24;;;;;;;;;;;;;;;;;;349813;28;945;-75
2022/01/24 01:03:35;;;;;;;;;;;;;;;;;;349854;28;921;-76
2022/01/24 01:03:45;;;;;;;;;;;;;;;;;;349870;28;976;-76
2022/01/24 01:03:55;;;;;;;;;;;;;;;;;;350827;28;1516;-76
2022/01/24 01:04:05;;;;;;;;;;;;;;;;;;351666;28;975;-75
2022/01/24 01:04:16;;;;;;;;;;;;;;;;;;352749;28;790;-76
2022/01/24 01:04:36;;;;;;;;;;;;;;;;;;352721;28;955;-76
2022/01/24 01:05:18;;;;;;;;;;;;;;;;;;352711;28;830;-76
2022/01/24 01:05:38;;;;;;;;;;;;;;;;;;351359;28;1796;-76
2022/01/24 01:06:05;;;;;;;;;;;;;;;;;;352698;28;889;-76
2022/01/24 01:06:15;;;;;;;;;;;;;;;;;;352742;28;956;-75
2022/01/24 01:06:25;;;;;;;;;;;;;;;;;;352680;28;979;-76
2022/01/24 01:06:38;;;;;;;;;;;;;;;;;;352610;28;1974;-75
2022/01/24 01:06:50;;;;;;;;;;;;;;;;;;352727;28;908;-76
2022/01/24 01:07:06;;;;;;;;;;;;;;;;;;352709;28;809;-75
2022/01/24 01:07:25;;;;;;;;;;;;;;;;;;350819;28;1575;-75
2022/01/24 01:18:14;;;;;;;;;;;;;;;;;;351224;28;959;-76
2022/01/24 01:18:25;;;;;;;;;;;;;;;;;;351309;28;1008;-75
2022/01/24 01:18:35;;;;;;;;;;;;;;;;;;351157;28;1520;-75
2022/01/24 01:18:45;;;;;;;;;;;;;;;;;;351311;28;924;-76
2022/01/24 01:18:56;;;;;;;;;;;;;;;;;;351299;28;996;-75
2022/01/24 01:19:07;;;;;;;;;;;;;;;;;;351283;28;905;-75
2022/01/24 01:19:17;;;;;;;;;;;;;;;;;;351274;28;944;-76
2022/01/24 01:19:27;;;;;;;;;;;;;;;;;;351358;28;860;-75
2022/01/24 01:19:38;;;;;;;;;;;;;;;;;;351191;28;1680;-75
2022/01/24 01:19:48;;;;;;;;;;;;;;;;;;351260;28;1864;-75
2022/01/24 01:19:59;;;;;;;;;;;;;;;;;;352409;28;1781;-76
2022/01/24 01:20:10;;;;;;;;;;;;;;;;;;352610;28;963;-76
2022/01/24 01:20:25;;;;;;;;;;;;;;;;;;351870;28;1808;-75
2022/01/24 01:20:56;;;;;;;;;;;;;;;;;;351258;28;1095;-75
2022/01/24 01:21:14;;;;;;;;;;;;;;;;;;351070;28;1090;-75
2022/01/24 01:21:25;;;;;;;;;;;;;;;;;;351362;28;936;-76
2022/01/24 01:21:35;;;;;;;;;;;;;;;;;;351249;28;921;-75
2022/01/24 01:21:45;;;;;;;;;;;;;;;;;;351274;28;975;-76
2022/01/24 01:21:56;;;;;;;;;;;;;;;;;;351329;28;850;-75
2022/01/24 01:22:06;;;;;;;;;;;;;;;;;;351273;28;933;-75
2022/01/24 01:22:16;;;;;;;;;;;;;;;;;;351286;28;825;-75
2022/01/24 01:22:27;;;;;;;;;;;;;;;;;;351323;28;1040;-75
2022/01/24 01:22:37;;;;;;;;;;;;;;;;;;351254;28;905;-76
2022/01/24 01:22:47;;;;;;;;;;;;;;;;;;351272;28;979;-75
2022/01/24 01:22:57;;;;;;;;;;;;;;;;;;351308;28;920;-75
2022/01/24 01:23:08;;;;;;;;;;;;;;;;;;351233;28;1052;-75
2022/01/24 01:23:18;;;;;;;;;;;;;;;;;;351287;28;1709;-75
2022/01/24 01:23:30;;;;;;;;;;;;;;;;;;351163;28;1841;-75
2022/01/24 01:23:46;;;;;;;;;;;;;;;;;;351216;28;1046;-75
2022/01/24 01:23:58;;;;;;;;;;;;;;;;;;351312;28;1113;-76
2022/01/24 01:24:08;;;;;;;;;;;;;;;;;;351287;28;991;-75
2022/01/24 01:24:19;;;;;;;;;;;;;;;;;;351245;28;917;-75
2022/01/24 01:24:32;;;;;;;;;;;;;;;;;;351304;28;924;-75
2022/01/24 01:24:49;;;;;;;;;;;;;;;;;;351256;28;944;-75
2022/01/24 01:25:00;;;;;;;;;;;;;;;;;;351326;28;849;-75
2022/01/24 01:25:10;;;;;;;;;;;;;;;;;;351287;28;860;-75
2022/01/24 01:25:20;;;;;;;;;;;;;;;;;;351244;28;1495;-75
2022/01/24 01:25:31;;;;;;;;;;;;;;;;;;352351;28;1764;-75
2022/01/24 01:25:43;;;;;;;;;;;;;;;;;;352544;28;1558;-75
2022/01/24 01:25:54;;;;;;;;;;;;;;;;;;352689;28;884;-75
2022/01/24 01:26:10;;;;;;;;;;;;;;;;;;352703;28;933;-75
2022/01/24 01:26:29;;;;;;;;;;;;;;;;;;352686;28;888;-76
2022/01/24 01:26:49;;;;;;;;;;;;;;;;;;352592;28;2031;-76
2022/01/24 01:27:06;;;;;;;;;;;;;;;;;;352699;28;936;-75
2022/01/24 01:27:25;;;;;;;;;;;;;;;;;;352695;28;928;-75
2022/01/24 01:27:40;;;;;;;;;;;;;;;;;;351744;28;1774;-75
2022/01/24 01:27:53;;;;;;;;;;;;;;;;;;352701;28;972;-75
2022/01/24 01:28:03;;;;;;;;;;;;;;;;;;351904;28;1840;-74
2022/01/24 01:28:14;;;;;;;;;;;;;;;;;;351275;28;1055;-75
2022/01/24 01:28:26;;;;;;;;;;;;;;;;;;351268;28;917;-75
2022/01/24 01:28:38;;;;;;;;;;;;;;;;;;351321;28;999;-76
2022/01/24 01:28:57;;;;;;;;;;;;;;;;;;351357;28;821;-75
2022/01/24 01:29:14;;;;;;;;;;;;;;;;;;351789;28;1797;-75
2022/01/24 01:29:30;;;;;;;;;;;;;;;;;;352727;28;956;-75
2022/01/24 01:30:14;;;;;;;;;;;;;;;;;;351182;28;1714;-75
2022/01/24 01:30:35;;;;;;;;;;;;;;;;;;351313;28;988;-75
2022/01/24 01:30:49;;;;;;;;;;;;;;;;;;351217;28;976;-75
2022/01/24 01:31:05;;;;;;;;;;;;;;;;;;351285;28;881;-75
2022/01/24 01:31:27;;;;;;;;;;;;;;;;;;351351;28;869;-75
2022/01/24 01:31:50;;;;;;;;;;;;;;;;;;351334;28;873;-75
2022/01/24 01:32:14;;;;;;;;;;;;;;;;;;351422;28;1789;-75
2022/01/24 01:32:42;;;;;;;;;;;;;;;;;;352717;28;791;-75
2022/01/24 01:33:03;;;;;;;;;;;;;;;;;;352655;28;971;-75
2022/01/24 01:33:44;;;;;;;;;;;;;;;;;;352712;28;860;-75
2022/01/24 01:36:12;;;;;;;;;;;;;;;;;;346981;28;984;-75
2022/01/24 01:37:14;;;;;;;;;;;;;;;;;;346980;28;1049;-75
2022/01/24 01:38:03;;;;;;;;;;;;;;;;;;348381;28;951;-75
2022/01/24 01:38:45;;;;;;;;;;;;;;;;;;352698;28;885;-76
2022/01/24 01:52:16;;;;;;;;;;;;;;;;;;352684;28;971;-76
2022/01/24 01:52:41;;;;;;;;;;;;;;;;;;351500;28;875;-75
2022/01/24 01:55:12;;;;;;;;;;;;;;;;;;351555;28;865;-75
2022/01/24 01:55:36;;;;;;;;;;;;;;;;;;352251;28;1534;-75
2022/01/24 01:55:47;;;;;;;;;;;;;;;;;;351531;28;1032;-75
2022/01/24 01:55:57;;;;;;;;;;;;;;;;;;351553;28;869;-75
2022/01/24 01:56:08;;;;;;;;;;;;;;;;;;351589;28;849;-75
2022/01/24 01:56:18;;;;;;;;;;;;;;;;;;351581;28;869;-76
2022/01/24 01:56:29;;;;;;;;;;;;;;;;;;351563;28;853;-75
2022/01/24 01:56:39;;;;;;;;;;;;;;;;;;351554;28;862;-76
2022/01/24 01:56:50;;;;;;;;;;;;;;;;;;351556;28;770;-75
2022/01/24 01:57:01;;;;;;;;;;;;;;;;;;351562;28;913;-75
2022/01/24 01:57:18;;;;;;;;;;;;;;;;;;351513;28;1700;-75
2022/01/24 01:57:28;;;;;;;;;;;;;;;;;;351520;28;928;-75
2022/01/24 01:57:39;;;;;;;;;;;;;;;;;;351541;28;892;-75
2022/01/24 01:57:49;;;;;;;;;;;;;;;;;;351469;28;1005;-75
2022/01/24 01:57:59;;;;;;;;;;;;;;;;;;351497;28;921;-76
2022/01/24 01:58:11;;;;;;;;;;;;;;;;;;351567;28;778;-76
2022/01/24 01:58:23;;;;;;;;;;;;;;;;;;351612;28;928;-76
2022/01/24 01:58:33;;;;;;;;;;;;;;;;;;351520;28;964;-76
2022/01/24 01:58:43;;;;;;;;;;;;;;;;;;351508;28;880;-75
2022/01/24 01:58:54;;;;;;;;;;;;;;;;;;351455;28;1633;-74
2022/01/24 01:59:04;;;;;;;;;;;;;;;;;;351507;28;1809;-75
2022/01/24 01:59:14;;;;;;;;;;;;;;;;;;351522;28;1017;-75
2022/01/24 01:59:24;;;;;;;;;;;;;;;;;;351238;28;995;-75
2022/01/24 01:59:35;;;;;;;;;;;;;;;;;;352268;28;1640;-75
2022/01/24 01:59:45;;;;;;;;;;;;;;;;;;352693;28;1174;-75
2022/01/24 01:59:55;;;;;;;;;;;;;;;;;;352992;28;991;-75
2022/01/24 02:00:07;;;;;;;;;;;;;;;;;;352875;28;996;-76
2022/01/24 02:00:17;;;;;;;;;;;;;;;;;;352955;28;983;-75
2022/01/24 02:00:27;;;;;;;;;;;;;;;;;;352947;28;803;-75
2022/01/24 02:00:39;;;;;;;;;;;;;;;;;;352937;28;920;-76
2022/01/24 02:00:54;;;;;;;;;;;;;;;;;;352900;28;917;-76
2022/01/24 02:01:06;;;;;;;;;;;;;;;;;;352976;28;913;-75
2022/01/24 02:01:16;;;;;;;;;;;;;;;;;;352292;28;1683;-75
2022/01/24 02:01:26;;;;;;;;;;;;;;;;;;351409;28;1741;-76
2022/01/24 02:01:36;;;;;;;;;;;;;;;;;;351518;28;936;-76
2022/01/24 02:01:46;;;;;;;;;;;;;;;;;;351447;28;1577;-75
2022/01/24 02:01:58;;;;;;;;;;;;;;;;;;351355;28;1793;-76
2022/01/24 02:02:08;;;;;;;;;;;;;;;;;;351436;28;960;-76
2022/01/24 02:02:18;;;;;;;;;;;;;;;;;;351304;28;1006;-75
2022/01/24 02:02:28;;;;;;;;;;;;;;;;;;351503;28;841;-75
2022/01/24 02:02:39;;;;;;;;;;;;;;;;;;351439;28;921;-75
2022/01/24 02:02:50;;;;;;;;;;;;;;;;;;351443;28;873;-76
2022/01/24 02:03:00;;;;;;;;;;;;;;;;;;351471;28;810;-75
2022/01/24 02:03:10;;;;;;;;;;;;;;;;;;351477;28;838;-76
2022/01/24 02:03:22;;;;;;;;;;;;;;;;;;351426;28;1656;-75
2022/01/24 02:03:32;;;;;;;;;;;;;;;;;;349850;28;1163;-76
2022/01/24 02:03:42;;;;;;;;;;;;;;;;;;350074;28;928;-76
2022/01/24 02:03:54;;;;;;;;;;;;;;;;;;350059;28;976;-75
2022/01/24 02:04:05;;;;;;;;;;;;;;;;;;350008;28;881;-76
2022/01/24 02:04:15;;;;;;;;;;;;;;;;;;350034;28;1074;-75
2022/01/24 02:04:26;;;;;;;;;;;;;;;;;;350038;28;972;-76
2022/01/24 02:04:36;;;;;;;;;;;;;;;;;;349996;28;921;-76
2022/01/24 02:04:46;;;;;;;;;;;;;;;;;;349898;28;1011;-76
2022/01/24 02:04:57;;;;;;;;;;;;;;;;;;350095;28;972;-75
2022/01/24 02:05:07;;;;;;;;;;;;;;;;;;350026;28;850;-75
2022/01/24 02:05:17;;;;;;;;;;;;;;;;;;349984;28;1669;-75
2022/01/24 02:05:28;;;;;;;;;;;;;;;;;;350613;28;1763;-76
2022/01/24 02:05:38;;;;;;;;;;;;;;;;;;352889;28;1084;-75
2022/01/24 02:05:49;;;;;;;;;;;;;;;;;;352955;28;904;-75
2022/01/24 02:05:59;;;;;;;;;;;;;;;;;;352063;28;1801;-75
2022/01/24 02:06:10;;;;;;;;;;;;;;;;;;351406;28;1807;-76
2022/01/24 02:06:21;;;;;;;;;;;;;;;;;;351538;28;929;-75
2022/01/24 02:06:32;;;;;;;;;;;;;;;;;;351506;28;1976;-76
2022/01/24 02:06:43;;;;;;;;;;;;;;;;;;351468;28;897;-75
2022/01/24 02:06:53;;;;;;;;;;;;;;;;;;351579;28;817;-76
2022/01/24 02:07:04;;;;;;;;;;;;;;;;;;351500;28;936;-76
2022/01/24 02:07:15;;;;;;;;;;;;;;;;;;351546;28;976;-76
2022/01/24 02:07:25;;;;;;;;;;;;;;;;;;351768;28;1719;-76
2022/01/24 02:07:47;;;;;;;;;;;;;;;;;;351545;28;904;-76
2022/01/24 02:07:57;;;;;;;;;;;;;;;;;;351531;28;897;-76
2022/01/24 02:08:07;;;;;;;;;;;;;;;;;;351442;28;1035;-76
2022/01/24 02:08:18;;;;;;;;;;;;;;;;;;351368;28;1029;-75
2022/01/24 02:08:31;;;;;;;;;;;;;;;;;;351560;28;814;-76
2022/01/24 02:08:42;;;;;;;;;;;;;;;;;;351541;28;861;-75
2022/01/24 02:08:59;;;;;;;;;;;;;;;;;;351553;28;861;-76
2022/01/24 02:09:11;;;;;;;;;;;;;;;;;;351487;28;928;-75
2022/01/24 02:09:27;;;;;;;;;;;;;;;;;;351492;28;1060;-75
2022/01/24 02:09:40;;;;;;;;;;;;;;;;;;351554;28;928;-75
2022/01/24 02:09:51;;;;;;;;;;;;;;;;;;351533;28;1003;-76
2022/01/24 02:10:01;;;;;;;;;;;;;;;;;;351475;28;984;-76
2022/01/24 02:10:11;;;;;;;;;;;;;;;;;;351502;28;932;-76
2022/01/24 02:10:23;;;;;;;;;;;;;;;;;;350043;28;869;-75
2022/01/24 02:10:35;;;;;;;;;;;;;;;;;;350026;28;1024;-76
2022/01/24 02:10:46;;;;;;;;;;;;;;;;;;349977;28;754;-76
2022/01/24 02:10:57;;;;;;;;;;;;;;;;;;349999;28;983;-75
2022/01/24 02:11:10;;;;;;;;;;;;;;;;;;350096;28;837;-75
2022/01/24 02:11:20;;;;;;;;;;;;;;;;;;350036;28;948;-76
2022/01/24 02:11:31;;;;;;;;;;;;;;;;;;350028;28;1721;-75
2022/01/24 02:11:41;;;;;;;;;;;;;;;;;;350074;28;923;-75
2022/01/24 02:11:55;;;;;;;;;;;;;;;;;;349991;28;980;-76
2022/01/24 02:12:05;;;;;;;;;;;;;;;;;;350072;28;851;-76
2022/01/24 02:12:17;;;;;;;;;;;;;;;;;;349979;28;1216;-75
2022/01/24 02:12:28;;;;;;;;;;;;;;;;;;351558;28;881;-76
2022/01/24 02:12:39;;;;;;;;;;;;;;;;;;351518;28;992;-76
2022/01/24 02:12:50;;;;;;;;;;;;;;;;;;351504;28;870;-76
2022/01/24 02:13:01;;;;;;;;;;;;;;;;;;351531;28;944;-76
2022/01/24 02:13:11;;;;;;;;;;;;;;;;;;351526;28;944;-76
2022/01/24 02:13:23;;;;;;;;;;;;;;;;;;351557;28;973;-76
2022/01/24 02:13:35;;;;;;;;;;;;;;;;;;351552;28;949;-76
2022/01/24 02:13:46;;;;;;;;;;;;;;;;;;352750;28;1456;-76
2022/01/24 02:14:00;;;;;;;;;;;;;;;;;;352044;28;1628;-75
2022/01/24 02:14:16;;;;;;;;;;;;;;;;;;352449;28;1785;-75
2022/01/24 02:14:34;;;;;;;;;;;;;;;;;;352947;28;889;-76
2022/01/24 02:14:54;;;;;;;;;;;;;;;;;;352152;28;1495;-75
2022/01/24 02:15:05;;;;;;;;;;;;;;;;;;352481;28;1836;-76
2022/01/24 02:15:23;;;;;;;;;;;;;;;;;;352966;28;893;-76
2022/01/24 02:15:47;;;;;;;;;;;;;;;;;;352976;28;796;-76
2022/01/24 02:16:14;;;;;;;;;;;;;;;;;;352865;28;955;-76
2022/01/24 02:16:38;;;;;;;;;;;;;;;;;;351708;28;1444;-75
2022/01/24 02:16:54;;;;;;;;;;;;;;;;;;351541;28;1015;-75
2022/01/24 02:17:10;;;;;;;;;;;;;;;;;;351518;28;1006;-75
2022/01/24 02:17:31;;;;;;;;;;;;;;;;;;351531;28;1003;-76
2022/01/24 02:18:08;;;;;;;;;;;;;;;;;;351551;28;1475;-75
2022/01/24 02:19:52;;;;;;;;;;;;;;;;;;347234;28;996;-75
2022/01/24 02:21:04;;;;;;;;;;;;;;;;;;347146;28;948;-75
2022/01/24 02:22:06;;;;;;;;;;;;;;;;;;347066;28;1134;-75
2022/01/24 02:22:49;;;;;;;;;;;;;;;;;;345850;28;869;-76
2022/01/24 02:23:18;;;;;;;;;;;;;;;;;;345841;28;941;-76
2022/01/24 02:23:46;;;;;;;;;;;;;;;;;;345902;28;1608;-75
2022/01/24 02:23:59;;;;;;;;;;;;;;;;;;346545;28;1796;-76
2022/01/24 02:24:11;;;;;;;;;;;;;;;;;;347193;28;989;-76
2022/01/24 02:24:22;;;;;;;;;;;;;;;;;;347206;28;991;-76